sensor_id;sensor_type;location;lat;lon;timestamp;pressure;altitude;pressure_sealevel;temperature;humidity
68891;BME280;55932;48.702;8.884;2022-12-29T00:02:00;95700;;;8.1;76.5
68891;BME280;55932;48.702;8.884;2022-12-29T00:06:53;95690;;;8;76.5
68891;BME280;55932;48.702;8.884;2022-12-29T00:09:25;95690;;;7.9;76.5
68891;BME280;55932;48.702;8.884;2022-12-29T00:11:54;95680;;;7.8;76.5
68891;BME280;55932;48.702;8.884;2022-12-29T00:19:26;95670;;;7.6;77
68891;BME280;55932;48.702;8.884;2022-12-29T00:27:09;95660;;;7.7;76.5
68891;BME280;55932;48.702;8.884;2022-12-29T00:29:35;95660;;;7.8;76.5
68891;BME280;55932;48.702;8.884;2022-12-29T00:32:07;95660;;;7.7;76.5
68891;BME280;55932;48.702;8.884;2022-12-29T00:34:37;95660;;;7.8;76.5
68891;BME280;55932;48.702;8.884;2022-12-29T00:37:01;95660;;;7.8;76.5
68891;BME280;55932;48.702;8.884;2022-12-29T00:39:31;95660;;;7.8;76.5
68891;BME280;55932;48.702;8.884;2022-12-29T00:47:13;95650;;;8;76.5
68891;BME280;55932;48.702;8.884;2022-12-29T00:49:35;95640;;;8.1;76.5
68891;BME280;55932;48.702;8.884;2022-12-29T00:52:07;95650;;;8.1;76.5
68891;BME280;55932;48.702;8.884;2022-12-29T00:54:37;95650;;;8.2;76.5
68891;BME280;55932;48.702;8.884;2022-12-29T00:57:14;95650;;;8.2;76.5
68891;BME280;55932;48.702;8.884;2022-12-29T00:59:44;95650;;;8.2;76.5
68891;BME280;55932;48.702;8.884;2022-12-29T01:02:15;95650;;;8.3;76.5
68891;BME280;55932;48.702;8.884;2022-12-29T01:04:47;95660;;;8.4;76.5
68891;BME280;55932;48.702;8.884;2022-12-29T01:07:10;95660;;;8.5;76.5
68891;BME280;55932;48.702;8.884;2022-12-29T01:12:12;95670;;;8.6;76
68891;BME280;55932;48.702;8.884;2022-12-29T01:14:43;95670;;;8.7;76
68891;BME280;55932;48.702;8.884;2022-12-29T01:17:13;95680;;;8.8;76
68891;BME280;55932;48.702;8.884;2022-12-29T01:19:45;95680;;;8.9;76
68891;BME280;55932;48.702;8.884;2022-12-29T01:24:52;95680;;;8.9;76
68891;BME280;55932;48.702;8.884;2022-12-29T01:27:23;95680;;;8.9;76
68891;BME280;55932;48.702;8.884;2022-12-29T01:29:53;95680;;;9;76
68891;BME280;55932;48.702;8.884;2022-12-29T01:32:17;95680;;;9.1;75.5
68891;BME280;55932;48.702;8.884;2022-12-29T01:39:51;95690;;;9;76
68891;BME280;55932;48.702;8.884;2022-12-29T01:42:22;95680;;;9.1;76
68891;BME280;55932;48.702;8.884;2022-12-29T01:44:54;95680;;;9;76
68891;BME280;55932;48.702;8.884;2022-12-29T01:47:25;95680;;;9.1;76
68891;BME280;55932;48.702;8.884;2022-12-29T01:50:09;95680;;;9.1;76
68891;BME280;55932;48.702;8.884;2022-12-29T01:52:32;95680;;;9.1;76
68891;BME280;55932;48.702;8.884;2022-12-29T01:55:02;95680;;;9.1;76
68891;BME280;55932;48.702;8.884;2022-12-29T01:57:33;95670;;;9.1;76
68891;BME280;55932;48.702;8.884;2022-12-29T02:00:06;95670;;;9.1;76
68891;BME280;55932;48.702;8.884;2022-12-29T02:07:29;95670;;;9.1;76
68891;BME280;55932;48.702;8.884;2022-12-29T02:09:59;95670;;;9.1;76
68891;BME280;55932;48.702;8.884;2022-12-29T02:12:30;95660;;;9.1;76
68891;BME280;55932;48.702;8.884;2022-12-29T02:15:02;95660;;;9.1;76
68891;BME280;55932;48.702;8.884;2022-12-29T02:17:36;95650;;;9.1;76
68891;BME280;55932;48.702;8.884;2022-12-29T02:20:15;95660;;;9.1;76
68891;BME280;55932;48.702;8.884;2022-12-29T02:26:16;95650;;;9;76
68891;BME280;55932;48.702;8.884;2022-12-29T02:28:50;95650;;;9;76
68891;BME280;55932;48.702;8.884;2022-12-29T02:30:38;95660;;;8.9;76
68891;BME280;55932;48.702;8.884;2022-12-29T02:33:23;95660;;;8.9;76.5
68891;BME280;55932;48.702;8.884;2022-12-29T02:38:00;95650;;;9.1;76
68891;BME280;55932;48.702;8.884;2022-12-29T02:42:59;95650;;;9.2;76
68891;BME280;55932;48.702;8.884;2022-12-29T02:45:31;95640;;;9.2;76
68891;BME280;55932;48.702;8.884;2022-12-29T02:47:55;95650;;;9.4;76
68891;BME280;55932;48.702;8.884;2022-12-29T02:50:23;95640;;;9.4;76
68891;BME280;55932;48.702;8.884;2022-12-29T02:55:16;95650;;;9.4;75.5
68891;BME280;55932;48.702;8.884;2022-12-29T02:57:48;95640;;;9.4;76
68891;BME280;55932;48.702;8.884;2022-12-29T03:00:18;95640;;;9.6;75.5
68891;BME280;55932;48.702;8.884;2022-12-29T03:03:00;95640;;;9.7;75.5
68891;BME280;55932;48.702;8.884;2022-12-29T03:07:57;95630;;;9.8;75.5
68891;BME280;55932;48.702;8.884;2022-12-29T03:10:25;95630;;;10;75.5
68891;BME280;55932;48.702;8.884;2022-12-29T03:13:02;95630;;;10.2;75.5
68891;BME280;55932;48.702;8.884;2022-12-29T03:15:27;95640;;;10.3;75.5
68891;BME280;55932;48.702;8.884;2022-12-29T03:18:05;95630;;;10.4;75
68891;BME280;55932;48.702;8.884;2022-12-29T03:20:29;95620;;;10.4;75.5
68891;BME280;55932;48.702;8.884;2022-12-29T03:22:58;95620;;;10.3;75.5
68891;BME280;55932;48.702;8.884;2022-12-29T03:25:30;95620;;;10.3;75.5
68891;BME280;55932;48.702;8.884;2022-12-29T03:28:01;95620;;;10.4;75.5
68891;BME280;55932;48.702;8.884;2022-12-29T03:30:36;95620;;;10.5;75.5
68891;BME280;55932;48.702;8.884;2022-12-29T03:33:08;95610;;;10.4;75.5
68891;BME280;55932;48.702;8.884;2022-12-29T03:35:33;95610;;;10.4;75.5
68891;BME280;55932;48.702;8.884;2022-12-29T03:40:27;95610;;;10.4;75.5
68891;BME280;55932;48.702;8.884;2022-12-29T03:42:58;95600;;;10.3;75.5
68891;BME280;55932;48.702;8.884;2022-12-29T03:45:28;95610;;;10.2;75.5
68891;BME280;55932;48.702;8.884;2022-12-29T03:47:59;95600;;;10;76
68891;BME280;55932;48.702;8.884;2022-12-29T03:50:30;95590;;;10;76
68891;BME280;55932;48.702;8.884;2022-12-29T03:53:01;95600;;;10;76
68891;BME280;55932;48.702;8.884;2022-12-29T04:05:40;95600;;;9.6;76.5
68891;BME280;55932;48.702;8.884;2022-12-29T04:08:11;95600;;;9.5;76.5
68891;BME280;55932;48.702;8.884;2022-12-29T04:10:42;95610;;;9.5;76.5
68891;BME280;55932;48.702;8.884;2022-12-29T04:13:06;95610;;;9.4;76.5
68891;BME280;55932;48.702;8.884;2022-12-29T04:15:36;95620;;;9.5;76.5
68891;BME280;55932;48.702;8.884;2022-12-29T04:18:07;95620;;;9.4;76.5
68891;BME280;55932;48.702;8.884;2022-12-29T04:20:38;95630;;;9.4;76.5
68891;BME280;55932;48.702;8.884;2022-12-29T04:23:09;95630;;;9.4;76.5
68891;BME280;55932;48.702;8.884;2022-12-29T04:33:17;95610;;;9.8;76
68891;BME280;55932;48.702;8.884;2022-12-29T04:35:48;95610;;;9.8;76
68891;BME280;55932;48.702;8.884;2022-12-29T04:38:20;95600;;;10;76
68891;BME280;55932;48.702;8.884;2022-12-29T04:40:50;95600;;;10.2;76
68891;BME280;55932;48.702;8.884;2022-12-29T04:45:45;95600;;;10.4;75.5
68891;BME280;55932;48.702;8.884;2022-12-29T04:48:15;95620;;;10.4;75.5
68891;BME280;55932;48.702;8.884;2022-12-29T04:50:47;95610;;;10.5;75.5
68891;BME280;55932;48.702;8.884;2022-12-29T04:58:19;95610;;;10.6;75.5
68891;BME280;55932;48.702;8.884;2022-12-29T05:00:50;95620;;;10.5;75.5
68891;BME280;55932;48.702;8.884;2022-12-29T05:03:20;95590;;;10.5;75.5
68891;BME280;55932;48.702;8.884;2022-12-29T05:08:28;95600;;;10.3;76
68891;BME280;55932;48.702;8.884;2022-12-29T05:10:59;95600;;;10.4;76
68891;BME280;55932;48.702;8.884;2022-12-29T05:13:29;95600;;;10.4;76
68891;BME280;55932;48.702;8.884;2022-12-29T05:15:53;95610;;;10.4;76
68891;BME280;55932;48.702;8.884;2022-12-29T05:18:24;95600;;;10.5;76
68891;BME280;55932;48.702;8.884;2022-12-29T05:28:27;95600;;;10.8;75.5
68891;BME280;55932;48.702;8.884;2022-12-29T05:30:58;95600;;;10.8;75.5
68891;BME280;55932;48.702;8.884;2022-12-29T05:33:29;95590;;;10.8;75.5
68891;BME280;55932;48.702;8.884;2022-12-29T05:36:03;95590;;;10.8;75.5
68891;BME280;55932;48.702;8.884;2022-12-29T05:38:44;95600;;;10.8;75.5
68891;BME280;55932;48.702;8.884;2022-12-29T05:41:14;95600;;;10.9;75.5
68891;BME280;55932;48.702;8.884;2022-12-29T05:43:44;95610;;;10.9;75.5
68891;BME280;55932;48.702;8.884;2022-12-29T05:48:38;95600;;;10.9;75.5
68891;BME280;55932;48.702;8.884;2022-12-29T05:51:09;95590;;;10.9;75.5
68891;BME280;55932;48.702;8.884;2022-12-29T05:53:40;95590;;;10.9;75.5
68891;BME280;55932;48.702;8.884;2022-12-29T05:56:11;95590;;;10.9;75.5
68891;BME280;55932;48.702;8.884;2022-12-29T05:58:42;95580;;;10.8;75.5
68891;BME280;55932;48.702;8.884;2022-12-29T06:03:44;95580;;;10.6;76
68891;BME280;55932;48.702;8.884;2022-12-29T06:06:15;95570;;;10.6;76
68891;BME280;55932;48.702;8.884;2022-12-29T06:11:17;95570;;;10.4;76
68891;BME280;55932;48.702;8.884;2022-12-29T06:13:48;95580;;;10.4;76
68891;BME280;55932;48.702;8.884;2022-12-29T06:16:25;95580;;;10.4;76
68891;BME280;55932;48.702;8.884;2022-12-29T06:18:55;95580;;;10.5;76
68891;BME280;55932;48.702;8.884;2022-12-29T06:23:50;95570;;;10.5;76
68891;BME280;55932;48.702;8.884;2022-12-29T06:26:20;95570;;;10.6;76
68891;BME280;55932;48.702;8.884;2022-12-29T06:28:51;95570;;;10.6;75.5
68891;BME280;55932;48.702;8.884;2022-12-29T06:33:46;95580;;;10.7;75.5
68891;BME280;55932;48.702;8.884;2022-12-29T06:36:17;95570;;;10.7;75.5
68891;BME280;55932;48.702;8.884;2022-12-29T06:38:47;95580;;;10.6;75.5
68891;BME280;55932;48.702;8.884;2022-12-29T06:41:19;95580;;;10.5;76
68891;BME280;55932;48.702;8.884;2022-12-29T06:48:51;95560;;;10.1;76
68891;BME280;55932;48.702;8.884;2022-12-29T06:51:21;95560;;;10;76.5
68891;BME280;55932;48.702;8.884;2022-12-29T06:53:59;95570;;;10;76.5
68891;BME280;55932;48.702;8.884;2022-12-29T06:56:30;95570;;;10;76.5
68891;BME280;55932;48.702;8.884;2022-12-29T06:59:01;95570;;;10;76.5
68891;BME280;55932;48.702;8.884;2022-12-29T07:03:56;95560;;;9.9;76.5
68891;BME280;55932;48.702;8.884;2022-12-29T07:06:27;95570;;;9.9;76.5
68891;BME280;55932;48.702;8.884;2022-12-29T07:08:57;95560;;;9.8;76.5
68891;BME280;55932;48.702;8.884;2022-12-29T07:16:31;95570;;;9.7;76.5
68891;BME280;55932;48.702;8.884;2022-12-29T07:19:01;95570;;;9.7;76.5
68891;BME280;55932;48.702;8.884;2022-12-29T07:21:31;95570;;;9.9;76
68891;BME280;55932;48.702;8.884;2022-12-29T07:24:02;95580;;;9.8;76.5
68891;BME280;55932;48.702;8.884;2022-12-29T07:26:33;95580;;;9.8;76.5
68891;BME280;55932;48.702;8.884;2022-12-29T07:29:04;95570;;;9.9;76.5
68891;BME280;55932;48.702;8.884;2022-12-29T07:34:12;95580;;;10;76
68891;BME280;55932;48.702;8.884;2022-12-29T07:36:43;95580;;;10.1;76
68891;BME280;55932;48.702;8.884;2022-12-29T07:39:13;95580;;;10.1;76
68891;BME280;55932;48.702;8.884;2022-12-29T07:46:58;95580;;;10.3;76
68891;BME280;55932;48.702;8.884;2022-12-29T07:51:52;95580;;;10.3;76
68891;BME280;55932;48.702;8.884;2022-12-29T07:54:23;95570;;;10.4;76
68891;BME280;55932;48.702;8.884;2022-12-29T07:56:54;95580;;;10.5;76
68891;BME280;55932;48.702;8.884;2022-12-29T08:01:47;95580;;;10.4;76
68891;BME280;55932;48.702;8.884;2022-12-29T08:04:18;95580;;;10.4;76
68891;BME280;55932;48.702;8.884;2022-12-29T08:06:49;95580;;;10.6;76
68891;BME280;55932;48.702;8.884;2022-12-29T08:09:26;95590;;;10.7;75.5
68891;BME280;55932;48.702;8.884;2022-12-29T08:11:45;95600;;;10.8;75.5
68891;BME280;55932;48.702;8.884;2022-12-29T08:14:15;95600;;;10.9;75.5
68891;BME280;55932;48.702;8.884;2022-12-29T08:16:46;95600;;;11;75.5
68891;BME280;55932;48.702;8.884;2022-12-29T08:19:17;95600;;;11;75.5
68891;BME280;55932;48.702;8.884;2022-12-29T08:21:47;95610;;;11.1;75.5
68891;BME280;55932;48.702;8.884;2022-12-29T08:24:18;95610;;;11.1;75.5
68891;BME280;55932;48.702;8.884;2022-12-29T08:26:50;95600;;;11.2;75.5
68891;BME280;55932;48.702;8.884;2022-12-29T08:29:20;95590;;;11.2;75.5
68891;BME280;55932;48.702;8.884;2022-12-29T08:31:50;95600;;;11.1;75.5
68891;BME280;55932;48.702;8.884;2022-12-29T08:39:23;95600;;;11.2;75.5
68891;BME280;55932;48.702;8.884;2022-12-29T08:44:30;95600;;;11.3;75.5
68891;BME280;55932;48.702;8.884;2022-12-29T08:47:01;95590;;;11.3;75.5
68891;BME280;55932;48.702;8.884;2022-12-29T08:52:03;95600;;;11.2;75.5
68891;BME280;55932;48.702;8.884;2022-12-29T08:54:41;95610;;;11.2;75.5
68891;BME280;55932;48.702;8.884;2022-12-29T08:57:12;95610;;;11.1;75.5
68891;BME280;55932;48.702;8.884;2022-12-29T08:59:49;95610;;;11;76
68891;BME280;55932;48.702;8.884;2022-12-29T09:04:41;95620;;;11.4;75.5
68891;BME280;55932;48.702;8.884;2022-12-29T09:09:38;95620;;;11.6;75
68891;BME280;55932;48.702;8.884;2022-12-29T09:14:47;95630;;;11.9;75
68891;BME280;55932;48.702;8.884;2022-12-29T09:17:17;95620;;;12.2;75
68891;BME280;55932;48.702;8.884;2022-12-29T09:19:41;95630;;;12.4;74.5
68891;BME280;55932;48.702;8.884;2022-12-29T09:22:12;95630;;;12.5;74.5
68891;BME280;55932;48.702;8.884;2022-12-29T09:24:42;95630;;;12.5;74.5
68891;BME280;55932;48.702;8.884;2022-12-29T09:27:14;95640;;;12.5;74.5
68891;BME280;55932;48.702;8.884;2022-12-29T09:34:52;95640;;;12.6;74.5
68891;BME280;55932;48.702;8.884;2022-12-29T09:37:24;95660;;;12.6;74.5
68891;BME280;55932;48.702;8.884;2022-12-29T09:42:59;95650;;;12.7;74.5
68891;BME280;55932;48.702;8.884;2022-12-29T09:44:56;95650;;;12.7;74.5
68891;BME280;55932;48.702;8.884;2022-12-29T09:47:30;95660;;;12.6;74.5
68891;BME280;55932;48.702;8.884;2022-12-29T09:52:26;95650;;;12.6;74.5
68891;BME280;55932;48.702;8.884;2022-12-29T09:57:20;95650;;;12.7;74.5
68891;BME280;55932;48.702;8.884;2022-12-29T09:59:52;95660;;;12.7;74.5
68891;BME280;55932;48.702;8.884;2022-12-29T10:02:30;95650;;;12.7;74.5
68891;BME280;55932;48.702;8.884;2022-12-29T10:10:10;95660;;;12.3;75
68891;BME280;55932;48.702;8.884;2022-12-29T10:13:01;95650;;;12.2;75
68891;BME280;55932;48.702;8.884;2022-12-29T10:17:34;95660;;;12.4;75
68891;BME280;55932;48.702;8.884;2022-12-29T10:23:32;95650;;;12.5;74.5
68891;BME280;55932;48.702;8.884;2022-12-29T10:27:34;95640;;;12.6;74.5
68891;BME280;55932;48.702;8.884;2022-12-29T10:30:04;95650;;;12.4;75
68891;BME280;55932;48.702;8.884;2022-12-29T10:32:35;95640;;;12.3;75
68891;BME280;55932;48.702;8.884;2022-12-29T10:34:59;95650;;;12.5;75
68891;BME280;55932;48.702;8.884;2022-12-29T10:37:30;95650;;;13.1;74.5
68891;BME280;55932;48.702;8.884;2022-12-29T10:40:00;95650;;;14.5;75.5
68891;BME280;55932;48.702;8.884;2022-12-29T10:44:55;95640;;;15.4;74.5
68891;BME280;55932;48.702;8.884;2022-12-29T10:47:27;95620;;;15.4;75
68891;BME280;55932;48.702;8.884;2022-12-29T10:49:56;95640;;;14.6;74.5
68891;BME280;55932;48.702;8.884;2022-12-29T10:52:27;95630;;;14.4;74.5
68891;BME280;55932;48.702;8.884;2022-12-29T10:54:59;95630;;;13.9;74.5
68891;BME280;55932;48.702;8.884;2022-12-29T10:57:32;95650;;;13.3;75
68891;BME280;55932;48.702;8.884;2022-12-29T10:59:59;95650;;;13.1;75
68891;BME280;55932;48.702;8.884;2022-12-29T11:05:03;95650;;;12.8;75
68891;BME280;55932;48.702;8.884;2022-12-29T11:07:32;95650;;;12.6;75
68891;BME280;55932;48.702;8.884;2022-12-29T11:10:35;95650;;;12.5;75
68891;BME280;55932;48.702;8.884;2022-12-29T11:22:43;95660;;;12.3;75
68891;BME280;55932;48.702;8.884;2022-12-29T11:25:13;95680;;;12.2;75
68891;BME280;55932;48.702;8.884;2022-12-29T11:28:02;95680;;;12;75
68891;BME280;55932;48.702;8.884;2022-12-29T11:30:31;95690;;;11.6;75
68891;BME280;55932;48.702;8.884;2022-12-29T11:35:17;95670;;;12.4;73.5
68891;BME280;55932;48.702;8.884;2022-12-29T11:37:41;95680;;;12;74
68891;BME280;55932;48.702;8.884;2022-12-29T11:47:45;95660;;;11.5;75.5
68891;BME280;55932;48.702;8.884;2022-12-29T11:50:17;95670;;;11.5;75.5
68891;BME280;55932;48.702;8.884;2022-12-29T11:52:45;95660;;;11.4;75.5
68891;BME280;55932;48.702;8.884;2022-12-29T11:55:29;95670;;;11.5;75.5
68891;BME280;55932;48.702;8.884;2022-12-29T11:58:00;95670;;;11.4;75.5
68891;BME280;55932;48.702;8.884;2022-12-29T12:02:58;95660;;;11.5;75.5
68891;BME280;55932;48.702;8.884;2022-12-29T12:05:28;95660;;;11.6;75.5
68891;BME280;55932;48.702;8.884;2022-12-29T12:07:57;95650;;;11.6;75.5
68891;BME280;55932;48.702;8.884;2022-12-29T12:15:24;95650;;;11.4;75.5
68891;BME280;55932;48.702;8.884;2022-12-29T12:17:53;95650;;;11.4;75.5
68891;BME280;55932;48.702;8.884;2022-12-29T12:20:27;95650;;;11.6;75.5
68891;BME280;55932;48.702;8.884;2022-12-29T12:25:29;95660;;;11.6;75
68891;BME280;55932;48.702;8.884;2022-12-29T12:27:57;95650;;;11.5;75
68891;BME280;55932;48.702;8.884;2022-12-29T12:30:27;95650;;;11.5;75
68891;BME280;55932;48.702;8.884;2022-12-29T12:33:05;95640;;;11.7;75
68891;BME280;55932;48.702;8.884;2022-12-29T12:36:05;95650;;;11.5;75.5
68891;BME280;55932;48.702;8.884;2022-12-29T12:45:36;95640;;;11.4;76.5
68891;BME280;55932;48.702;8.884;2022-12-29T12:48:14;95640;;;13;77
68891;BME280;55932;48.702;8.884;2022-12-29T12:50:42;95620;;;14.1;76
68891;BME280;55932;48.702;8.884;2022-12-29T12:53:17;95620;;;14.5;75.5
68891;BME280;55932;48.702;8.884;2022-12-29T12:55:40;95630;;;15;75.5
68891;BME280;55932;48.702;8.884;2022-12-29T12:58:17;95630;;;14.8;75
68891;BME280;55932;48.702;8.884;2022-12-29T13:00:50;95630;;;13.9;75
68891;BME280;55932;48.702;8.884;2022-12-29T13:10:41;95620;;;14.7;75
68891;BME280;55932;48.702;8.884;2022-12-29T13:13:21;95630;;;13.5;74.5
68891;BME280;55932;48.702;8.884;2022-12-29T13:18:27;95620;;;12.3;75
68891;BME280;55932;48.702;8.884;2022-12-29T13:21:11;95620;;;12;75.5
68891;BME280;55932;48.702;8.884;2022-12-29T13:25:50;95630;;;11.8;75
68891;BME280;55932;48.702;8.884;2022-12-29T13:28:22;95620;;;11.7;75
68891;BME280;55932;48.702;8.884;2022-12-29T13:30:53;95610;;;11.6;75
68891;BME280;55932;48.702;8.884;2022-12-29T13:33:39;95610;;;11.7;75
68891;BME280;55932;48.702;8.884;2022-12-29T13:36:06;95610;;;11.7;75
68891;BME280;55932;48.702;8.884;2022-12-29T13:38:37;95610;;;11.7;75
68891;BME280;55932;48.702;8.884;2022-12-29T13:43:22;95610;;;11.8;75
68891;BME280;55932;48.702;8.884;2022-12-29T13:45:57;95610;;;11.7;75
68891;BME280;55932;48.702;8.884;2022-12-29T13:48:29;95600;;;11.6;75
68891;BME280;55932;48.702;8.884;2022-12-29T13:50:57;95600;;;11.6;75
68891;BME280;55932;48.702;8.884;2022-12-29T13:58:26;95610;;;11.7;74.5
68891;BME280;55932;48.702;8.884;2022-12-29T14:00:57;95610;;;11.5;75
68891;BME280;55932;48.702;8.884;2022-12-29T14:03:55;95610;;;11.7;75
68891;BME280;55932;48.702;8.884;2022-12-29T14:06:25;95610;;;11.7;75
68891;BME280;55932;48.702;8.884;2022-12-29T14:08:24;95620;;;11.5;75
68891;BME280;55932;48.702;8.884;2022-12-29T14:11:08;95620;;;11.2;75
68891;BME280;55932;48.702;8.884;2022-12-29T14:13:26;95630;;;11.1;75
68891;BME280;55932;48.702;8.884;2022-12-29T14:15:57;95620;;;11.2;75
68891;BME280;55932;48.702;8.884;2022-12-29T14:18:29;95610;;;11.6;76
68891;BME280;55932;48.702;8.884;2022-12-29T14:20:59;95610;;;12.1;76
68891;BME280;55932;48.702;8.884;2022-12-29T14:28:31;95610;;;11.6;76
68891;BME280;55932;48.702;8.884;2022-12-29T14:31:02;95620;;;11.2;76
68891;BME280;55932;48.702;8.884;2022-12-29T14:33:33;95620;;;10.9;76
68891;BME280;55932;48.702;8.884;2022-12-29T14:36:19;95620;;;10.8;76
68891;BME280;55932;48.702;8.884;2022-12-29T14:38:34;95630;;;10.8;76
68891;BME280;55932;48.702;8.884;2022-12-29T14:41:37;95620;;;10.7;75.5
68891;BME280;55932;48.702;8.884;2022-12-29T14:43:42;95620;;;10.6;76
68891;BME280;55932;48.702;8.884;2022-12-29T14:46:13;95630;;;10.5;75.5
68891;BME280;55932;48.702;8.884;2022-12-29T14:48:44;95620;;;10.3;76
68891;BME280;55932;48.702;8.884;2022-12-29T14:56:10;95630;;;10.2;76
68891;BME280;55932;48.702;8.884;2022-12-29T14:58:43;95620;;;10.1;76
68891;BME280;55932;48.702;8.884;2022-12-29T15:01:28;95620;;;10.3;75.5
68891;BME280;55932;48.702;8.884;2022-12-29T15:03:43;95630;;;10.3;75.5
68891;BME280;55932;48.702;8.884;2022-12-29T15:06:13;95630;;;10.3;75.5
68891;BME280;55932;48.702;8.884;2022-12-29T15:08:47;95630;;;10.4;75.5
68891;BME280;55932;48.702;8.884;2022-12-29T15:11:15;95640;;;10.5;75.5
68891;BME280;55932;48.702;8.884;2022-12-29T15:13:44;95640;;;10.5;75
68891;BME280;55932;48.702;8.884;2022-12-29T15:16:31;95650;;;10.5;75
68891;BME280;55932;48.702;8.884;2022-12-29T15:34:09;95650;;;10.5;75
68891;BME280;55932;48.702;8.884;2022-12-29T15:36:28;95650;;;10.4;75
68891;BME280;55932;48.702;8.884;2022-12-29T15:38:57;95660;;;10.4;75
68891;BME280;55932;48.702;8.884;2022-12-29T15:46:23;95680;;;10.1;75
68891;BME280;55932;48.702;8.884;2022-12-29T15:48:56;95700;;;9.7;75
68891;BME280;55932;48.702;8.884;2022-12-29T15:51:28;95700;;;9.2;75.5
68891;BME280;55932;48.702;8.884;2022-12-29T15:53:56;95700;;;8.7;76
68891;BME280;55932;48.702;8.884;2022-12-29T15:56:28;95710;;;8.4;76.5
68891;BME280;55932;48.702;8.884;2022-12-29T15:58:58;95690;;;8.1;76.5
68891;BME280;55932;48.702;8.884;2022-12-29T16:01:29;95690;;;8.1;76.5
68891;BME280;55932;48.702;8.884;2022-12-29T16:09:02;95700;;;8;76.5
68891;BME280;55932;48.702;8.884;2022-12-29T16:14:10;95700;;;7.9;76.5
68891;BME280;55932;48.702;8.884;2022-12-29T16:16:39;95690;;;7.9;76
68891;BME280;55932;48.702;8.884;2022-12-29T16:19:14;95690;;;8;76
68891;BME280;55932;48.702;8.884;2022-12-29T16:24:06;95710;;;8;76
68891;BME280;55932;48.702;8.884;2022-12-29T16:26:36;95700;;;8.1;76
68891;BME280;55932;48.702;8.884;2022-12-29T16:29:07;95690;;;8.1;75.5
68891;BME280;55932;48.702;8.884;2022-12-29T16:36:51;95710;;;8.1;76
68891;BME280;55932;48.702;8.884;2022-12-29T16:39:16;95710;;;8;76
68891;BME280;55932;48.702;8.884;2022-12-29T16:47:17;95720;;;8;75.5
68891;BME280;55932;48.702;8.884;2022-12-29T16:51:56;95740;;;7.9;76
68891;BME280;55932;48.702;8.884;2022-12-29T16:54:23;95730;;;7.9;76
68891;BME280;55932;48.702;8.884;2022-12-29T16:56:52;95740;;;7.9;76
68891;BME280;55932;48.702;8.884;2022-12-29T16:59:26;95740;;;8;76
68891;BME280;55932;48.702;8.884;2022-12-29T17:01:46;95750;;;8;76
68891;BME280;55932;48.702;8.884;2022-12-29T17:14:27;95750;;;8;75.5
68891;BME280;55932;48.702;8.884;2022-12-29T17:16:50;95740;;;8;75.5
68891;BME280;55932;48.702;8.884;2022-12-29T17:19:26;95740;;;8;75.5
68891;BME280;55932;48.702;8.884;2022-12-29T17:21:52;95740;;;8;75.5
68891;BME280;55932;48.702;8.884;2022-12-29T17:24:36;95740;;;8;75.5
68891;BME280;55932;48.702;8.884;2022-12-29T17:27:06;95730;;;8;75.5
68891;BME280;55932;48.702;8.884;2022-12-29T17:32:00;95740;;;7.8;75.5
68891;BME280;55932;48.702;8.884;2022-12-29T17:34:31;95750;;;8;75.5
68891;BME280;55932;48.702;8.884;2022-12-29T17:37:15;95750;;;8;75.5
68891;BME280;55932;48.702;8.884;2022-12-29T17:42:04;95740;;;7.9;75.5
68891;BME280;55932;48.702;8.884;2022-12-29T17:47:12;95740;;;7.9;75.5
68891;BME280;55932;48.702;8.884;2022-12-29T17:49:43;95740;;;8;75.5
68891;BME280;55932;48.702;8.884;2022-12-29T17:52:13;95750;;;8;75.5
68891;BME280;55932;48.702;8.884;2022-12-29T17:57:08;95760;;;8.1;75.5
68891;BME280;55932;48.702;8.884;2022-12-29T17:59:37;95760;;;8;75.5
68891;BME280;55932;48.702;8.884;2022-12-29T18:02:25;95760;;;8;75.5
68891;BME280;55932;48.702;8.884;2022-12-29T18:09:47;95770;;;7.9;75.5
68891;BME280;55932;48.702;8.884;2022-12-29T18:12:26;95770;;;7.9;75.5
68891;BME280;55932;48.702;8.884;2022-12-29T18:14:47;95760;;;7.8;75.5
68891;BME280;55932;48.702;8.884;2022-12-29T18:19:42;95770;;;7.9;75.5
68891;BME280;55932;48.702;8.884;2022-12-29T18:22:12;95760;;;7.8;75.5
68891;BME280;55932;48.702;8.884;2022-12-29T18:24:44;95770;;;7.8;76
68891;BME280;55932;48.702;8.884;2022-12-29T18:27:21;95770;;;7.8;75.5
68891;BME280;55932;48.702;8.884;2022-12-29T18:35:12;95770;;;7.7;75.5
68891;BME280;55932;48.702;8.884;2022-12-29T18:37:23;95760;;;7.6;75.5
68891;BME280;55932;48.702;8.884;2022-12-29T18:42:18;95770;;;7.5;76
68891;BME280;55932;48.702;8.884;2022-12-29T18:44:48;95780;;;7.5;76
68891;BME280;55932;48.702;8.884;2022-12-29T18:47:26;95780;;;7.5;76
68891;BME280;55932;48.702;8.884;2022-12-29T18:49:44;95780;;;7.5;75.5
68891;BME280;55932;48.702;8.884;2022-12-29T18:54:45;95780;;;7.4;76
68891;BME280;55932;48.702;8.884;2022-12-29T18:57:16;95780;;;7.4;76
68891;BME280;55932;48.702;8.884;2022-12-29T18:59:47;95790;;;7.4;76
68891;BME280;55932;48.702;8.884;2022-12-29T19:02:17;95790;;;7.4;76
68891;BME280;55932;48.702;8.884;2022-12-29T19:04:48;95780;;;7.4;76
68891;BME280;55932;48.702;8.884;2022-12-29T19:07:28;95790;;;7.3;76
68891;BME280;55932;48.702;8.884;2022-12-29T19:09:56;95800;;;7.4;75.5
68891;BME280;55932;48.702;8.884;2022-12-29T19:12:27;95790;;;7.3;76
68891;BME280;55932;48.702;8.884;2022-12-29T19:14:58;95780;;;7.2;76
68891;BME280;55932;48.702;8.884;2022-12-29T19:27:37;95780;;;7;76
68891;BME280;55932;48.702;8.884;2022-12-29T19:30:08;95790;;;7;76
68891;BME280;55932;48.702;8.884;2022-12-29T19:32:31;95800;;;7;76
68891;BME280;55932;48.702;8.884;2022-12-29T19:35:02;95790;;;7;76
68891;BME280;55932;48.702;8.884;2022-12-29T19:37:33;95790;;;6.9;76
68891;BME280;55932;48.702;8.884;2022-12-29T19:40:11;95780;;;6.9;76
68891;BME280;55932;48.702;8.884;2022-12-29T19:42:42;95780;;;6.9;76
68891;BME280;55932;48.702;8.884;2022-12-29T19:47:42;95780;;;6.8;76
68891;BME280;55932;48.702;8.884;2022-12-29T19:50:13;95780;;;6.8;76
68891;BME280;55932;48.702;8.884;2022-12-29T19:52:43;95780;;;6.8;76
68891;BME280;55932;48.702;8.884;2022-12-29T19:55:13;95790;;;6.8;76
68891;BME280;55932;48.702;8.884;2022-12-29T20:00:14;95780;;;6.8;76
68891;BME280;55932;48.702;8.884;2022-12-29T20:02:38;95790;;;6.8;75.5
68891;BME280;55932;48.702;8.884;2022-12-29T20:05:09;95790;;;6.8;75.5
68891;BME280;55932;48.702;8.884;2022-12-29T20:07:46;95800;;;6.8;75.5